Latest Coastal Weather Observations for Point Perpendicular

IDN60701

Issued at 5:01 am EST Sunday 30 August 2015 (issued every 10 minutes, with the page automatically refreshed every 10 minutes)

About coastal observations | Map of coastal stations | Coastal observations for NSW | Marine services | Other Formats
Station Details ID: 068151 Name: POINT PERPENDICULAR AWS Lat: -35.09 Lon: 150.80 Height: 85.0 m
Data from the previous 72 hours. | See also: Recent months at Point Perpendicular
Date/Time
EST
Temp

°C
Wind Pressure Rain
since 9am
mm
Weather Cloud Vis
km
Sea
Height
m
Swell
Dir
 
Speed
knots
Gust
knots
hPa Trend Height
m
Period
s
Dir
30/05:00am 9.1 WNW 5 7 1019.3 - 0.0 - - - - - - -
30/04:30am 9.1 W 5 6 1019.3 - 0.0 - - - - - - -
30/04:00am 8.4 WNW 6 7 1019.2 - 0.0 - - - - - - -
30/03:30am 8.2 WNW 7 8 1019.4 - 0.0 - - - - - - -
30/03:00am 8.5 WNW 8 9 1019.5 - 0.0 - - - - - - -
30/02:30am 8.2 WNW 7 8 1019.7 - 0.0 - - - - - - -
30/02:00am 8.6 WNW 6 7 1019.9 - 0.0 - - - - - - -
30/01:30am 8.5 WNW 7 8 1020.2 - 0.0 - - - - - - -
30/01:00am 9.0 WNW 6 8 1020.4 - 0.0 - - - - - - -
30/12:30am 9.1 WNW 7 8 1020.4 - 0.0 - - - - - - -
30/12:00am 9.5 WNW 6 8 1020.4 - 0.0 - - - - - - -
 
Date/Time
EST
Temp

°C
Wind Pressure Rain
since 9am
mm
Weather Cloud Vis
km
Sea
Height
m
Swell
Dir
 
Speed
knots
Gust
knots
hPa Trend Height
m
Period
s
Dir
29/11:30pm 9.9 WNW 7 9 1020.3 - 0.0 - - - - - - -
29/11:00pm 9.9 NW 7 8 1020.3 - 0.0 - - - - - - -
29/10:30pm 10.1 NW 7 8 1020.2 - 0.0 - - - - - - -
29/10:00pm 10.6 WNW 6 7 1020.2 - 0.0 - - - - - - -
29/09:30pm 11.7 NW 5 7 1020.2 - 0.0 - - - - - - -
29/09:00pm 12.4 W 6 8 1020.2 - 0.0 - - - - - - -
29/08:30pm 12.8 W 7 11 1020.0 - 0.0 - - - - - - -
29/08:00pm 13.9 SSW 5 7 1019.8 - 0.0 - - - - - - -
29/07:30pm 13.6 S 5 8 1019.5 - 0.0 - - - - - - -
29/07:00pm 13.4 S 6 8 1019.4 - 0.0 - - - - - - -
29/06:30pm 13.7 SSW 5 8 1019.1 - 0.0 - - - - - - -
29/06:00pm 14.4 W 6 8 1018.7 - 0.0 - - - - - - -
29/05:30pm 14.0 NW 1 4 1018.4 - 0.0 - - - - - - -
29/05:00pm 15.0 E 1 3 1017.9 - 0.0 - - - - - - -
29/04:30pm 16.1 E 1 3 1017.8 - 0.0 - - - - - - -
29/04:00pm 15.6 ESE 4 8 1017.7 - 0.0 - - - - - - -
29/03:30pm 15.1 SE 5 8 1017.8 - 0.0 - - - - - - -
29/03:00pm 15.4 WSW 8 12 1017.8 - 0.0 - - - - - - -
29/02:30pm 16.2 W 8 13 1017.9 - 0.0 - - - - - - -
29/02:00pm 16.0 W 9 15 1018.2 - 0.0 - - - - - - -
29/01:30pm 15.6 WSW 7 14 1018.5 - 0.0 - - - - - - -
29/01:00pm 14.8 SSW 5 11 1019.0 - 0.0 - - - - - - -
29/12:30pm 14.6 WSW 9 15 1019.5 - 0.0 - - - - - - -
29/12:00pm 14.2 SW 6 9 1020.1 - 0.0 - - - - - - -
29/11:30am 13.6 SSW 5 8 1020.4 - 0.0 - - - - - - -
29/11:00am 13.7 SW 8 12 1021.0 - 0.0 - - - - - - -
29/10:30am 13.4 SW 7 11 1021.2 - 0.0 - - - - - - -
29/10:00am 12.9 W 6 11 1021.2 - 0.0 - - - - - - -
29/09:30am 12.7 W 7 11 1021.5 - 0.0 - - - - - - -
29/09:00am 12.4 NW 8 12 1021.6 - 15.6 - - - - - - -
29/08:30am 12.1 NW 7 11 1021.7 - 15.6 - - - - - - -
29/08:00am 11.7 WNW 4 6 1022.0 - 15.6 - - - - - - -
29/07:30am 10.8 WNW 7 12 1022.0 - 15.6 - - - - - - -
29/07:00am 10.3 W 5 7 1021.8 - 15.6 - - - - - - -
29/06:30am 9.9 WNW 6 8 1021.7 - 15.6 - - - - - - -
29/06:00am 9.8 NW 6 7 1021.4 - 15.6 - - - - - - -
29/05:30am 9.5 NW 5 6 1021.2 - 15.6 - - - - - - -
29/05:00am 10.2 NW 3 5 1021.3 - 15.6 - - - - - - -
29/04:30am 10.7 WNW 5 6 1021.3 - 15.6 - - - - - - -
29/04:00am 10.7 WNW 4 5 1021.2 - 15.6 - - - - - - -
29/03:30am 11.2 WNW 4 5 1021.4 - 15.6 - - - - - - -
29/03:00am 11.6 WNW 4 6 1021.7 - 15.6 - - - - - - -
29/02:30am 11.5 SW 3 5 1022.0 - 15.6 - - - - - - -
29/02:00am 11.7 SW 3 5 1022.2 - 15.6 - - - - - - -
29/01:30am 11.7 SSW 4 6 1022.4 - 15.6 - - - - - - -
29/01:00am 11.7 SW 4 6 1022.5 - 15.6 - - - - - - -
29/12:30am 11.6 SSW 4 6 1022.4 - 15.6 - - - - - - -
29/12:00am 11.5 S 5 7 1022.4 - 15.6 - - - - - - -
 
Date/Time
EST
Temp

°C
Wind Pressure Rain
since 9am
mm
Weather Cloud Vis
km
Sea
Height
m
Swell
Dir
 
Speed
knots
Gust
knots
hPa Trend Height
m
Period
s
Dir
28/11:30pm 11.9 SSW 5 7 1022.5 - 15.6 - - - - - - -
28/11:00pm 12.1 SSW 5 7 1022.7 - 15.6 - - - - - - -
28/10:30pm 11.9 SSW 6 11 1022.6 - 15.6 - - - - - - -
28/10:00pm 12.0 S 7 12 1022.7 - 15.6 - - - - - - -
28/09:30pm 11.8 SSW 6 8 1022.7 - 15.4 - - - - - - -
28/09:00pm 12.0 SSW 5 7 1022.8 - 14.0 Rain - - - - - -
28/08:30pm 11.9 S 6 9 1022.4 - 12.0 - - - - - - -
28/08:00pm 12.1 SSW 5 8 1022.5 - 11.0 - - - - - - -
28/07:30pm 12.2 S 8 14 1021.9 - 9.4 - - - - - - -
28/07:00pm 11.6 SSW 6 11 1021.7 - 7.2 - - - - - - -
28/06:30pm 14.2 S 10 17 1020.8 - 0.0 - - - - - - -
28/06:00pm 14.5 S 10 17 1020.2 - 0.0 - - - - - - -
28/05:30pm 14.5 S 13 19 1019.7 - 0.0 - - - - - - -
28/05:00pm 14.7 S 14 22 1019.4 - 0.0 - - - - - - -
28/04:30pm 14.9 S 14 22 1018.9 - 0.0 - - - - - - -
28/04:00pm 15.3 S 12 19 1018.8 - 0.0 - - - - - - -
28/03:30pm 15.3 S 13 23 1018.5 - 0.0 - - - - - - -
28/03:00pm 15.3 SSW 13 22 1018.4 - 0.0 - - - - - - -
28/02:30pm 15.2 SSW 13 21 1018.6 - 0.0 - - - - - - -
28/02:02pm 15.2 SSW 15 25 1018.2 - 0.0 - - - - - - -
28/02:00pm 15.2 SSW 14 21 1018.2 - 0.0 - - - - - - -
28/01:50pm 15.2 SSW 15 25 1018.2 - 0.0 - - - - - - -
28/01:30pm 15.3 SSW 15 23 1018.2 - 0.0 - - - - - - -
28/01:00pm 15.2 SSW 14 24 1018.0 - 0.0 - - - - - - -
28/12:37pm 15.2 SSW 15 26 1018.4 - 0.0 - - - - - - -
28/12:30pm 15.2 SW 15 23 1018.4 - 0.0 - - - - - - -
28/12:01pm 14.6 SSW 15 25 1018.2 - 0.0 - - - - - - -
28/12:00pm 14.7 SSW 14 25 1018.1 - 0.0 - - - - - - -
28/11:30am 15.1 SW 15 27 1018.7 - 0.0 - - - - - - -
28/11:05am 15.1 SW 15 28 1018.8 - 0.0 - - - - - - -
28/11:00am 14.9 SW 15 24 1018.5 - 0.0 - - - - - - -
28/10:30am 14.6 SW 12 24 1018.6 - 0.0 - - - - - - -
28/10:00am 13.8 WSW 12 17 1018.4 - 0.0 - - - - - - -
28/09:30am 12.3 W 11 17 1018.5 - 0.0 - - - - - - -
28/09:00am 10.9 WNW 11 17 1018.2 - 2.2 Recent precip. - - - - - -
28/08:30am 10.2 WNW 10 16 1018.0 - 2.2 - - - - - - -
28/08:00am 10.1 W 11 18 1017.8 - 2.0 - - - - - - -
28/07:30am 10.6 WSW 13 18 1017.8 - 1.2 - - - - - - -
28/07:00am 12.1 W 14 21 1017.1 - 0.0 - - - - - - -
28/06:30am 12.3 W 10 16 1016.6 - 0.0 - - - - - - -
28/06:00am 12.2 W 10 15 1016.1 - 0.0 - - - - - - -
28/05:30am 12.4 W 9 16 1015.7 - 0.0 - - - - - - -
28/05:00am 12.3 W 8 12 1015.5 - 0.0 - - - - - - -
28/04:30am 12.2 W 8 12 1015.3 - 0.0 - - - - - - -
28/04:00am 12.3 WNW 8 12 1015.2 - 0.0 - - - - - - -
28/03:30am 12.1 WNW 9 14 1014.8 - 0.0 - - - - - - -
28/03:00am 12.0 WNW 8 13 1014.7 - 0.0 - - - - - - -
28/02:30am 11.8 W 7 12 1015.3 - 0.0 - - - - - - -
28/02:00am 12.0 WNW 9 16 1015.5 - 0.0 - - - - - - -
28/01:30am 12.1 WNW 8 12 1015.8 - 0.0 - - - - - - -
28/01:00am 12.2 WNW 7 12 1016.1 - 0.0 - - - - - - -
28/12:30am 12.3 W 9 15 1016.2 - 0.0 - - - - - - -
28/12:00am 12.5 W 9 14 1016.0 - 0.0 - - - - - - -
 
Date/Time
EST
Temp

°C
Wind Pressure Rain
since 9am
mm
Weather Cloud Vis
km
Sea
Height
m
Swell
Dir
 
Speed
knots
Gust
knots
hPa Trend Height
m
Period
s
Dir
27/11:30pm 12.5 W 13 19 1016.4 - 0.0 - - - - - - -
27/11:00pm 12.7 W 13 18 1016.4 - 0.0 - - - - - - -
27/10:30pm 13.1 W 8 15 1016.4 - 0.0 - - - - - - -
27/10:00pm 13.2 W 8 14 1016.3 - 0.0 - - - - - - -
27/09:30pm 13.3 WNW 9 13 1015.9 - 0.0 - - - - - - -
27/09:00pm 13.4 WNW 8 12 1016.0 - 0.0 - - - - - - -
27/08:30pm 13.6 WNW 10 15 1015.8 - 0.0 - - - - - - -
27/08:00pm 14.0 WNW 11 17 1015.5 - 0.0 - - - - - - -
27/07:30pm 14.6 WNW 12 16 1015.4 - 0.0 - - - - - - -
27/07:00pm 15.3 WNW 11 16 1015.2 - 0.0 - - - - - - -
27/06:30pm 15.8 WNW 12 17 1015.0 - 0.0 - - - - - - -
27/06:00pm 16.3 WNW 10 16 1015.0 - 0.0 - - - - - - -
27/05:30pm 16.8 NW 7 9 1014.8 - 0.0 - - - - - - -
27/05:00pm 17.1 WNW 8 12 1014.4 - 0.0 - - - - - - -
27/04:30pm 17.8 WNW 8 12 1014.4 - 0.0 - - - - - - -
27/04:00pm 17.8 WNW 8 11 1014.2 - 0.0 - - - - - - -
27/03:30pm 18.1 WNW 5 8 1014.4 - 0.0 - - - - - - -
27/03:00pm 18.1 NW 7 13 1014.4 - 0.0 - - - - - - -
27/02:30pm 16.5 NE 5 8 1014.6 - 0.0 - - - - - - -
27/02:00pm 16.3 ENE 6 8 1015.0 - 0.0 - - - - - - -
27/01:30pm 16.3 ENE 4 7 1015.4 - 0.0 - - - - - - -
27/01:00pm 16.0 WSW 4 8 1015.7 - 0.0 - - - - - - -
27/12:30pm 15.7 WNW 4 6 1016.2 - 0.0 - - - - - - -
27/12:00pm 15.5 WSW 4 7 1016.7 - 0.0 - - - - - - -
27/11:30am 15.3 SW 4 6 1017.3 - 0.0 - - - - - - -
27/11:00am 15.4 SW 3 6 1017.9 - 0.0 - - - - - - -
27/10:30am 15.4 WSW 5 7 1018.4 - 0.0 - - - - - - -
27/10:00am 15.2 SW 6 8 1018.5 - 0.0 - - - - - - -
27/09:30am 14.6 SW 5 8 1018.7 - 0.0 - - - - - - -
27/09:00am 14.0 SW 6 8 1018.9 - 17.8 - - - - - - -
27/08:30am 13.6 SW 5 8 1019.0 - 17.8 - - - - - - -
27/08:00am 13.4 SW 5 8 1019.1 - 17.8 - - - - - - -
27/07:30am 13.3 WSW 6 7 1019.0 - 17.8 - - - - - - -
27/07:00am 13.3 WSW 5 7 1018.9 - 17.8 - - - - - - -
27/06:30am 13.1 WSW 5 7 1018.8 - 17.8 - - - - - - -
27/06:00am 13.1 WSW 6 9 1018.6 - 17.8 - - - - - - -
27/05:30am 13.1 WSW 6 8 1018.8 - 17.8 - - - - - - -

Other Formats:

Comma delimited format used in spreadsheet applications
http://www.bom.gov.au/fwo/IDN60701/IDN60701.95940.axf

JavaScript Object Notation format (JSON) in row-major order
http://www.bom.gov.au/fwo/IDN60701/IDN60701.95940.json